Time;durP1;ratioP1;P1;durP2;ratioP2;P2;SDS_P1;SDS_P2;PMS_P1;PMS_P2;Temp;Humidity;BMP_temperature;BMP_pressure;BME280_temperature;BME280_humidity;BME280_pressure;Samples;Min_cycle;Max_cycle;Signal;HPM_P1;HPM_P2
2022/05/31 00:01:10;;;;;;;30.75;29.15;;;;;;;20.69;42.16;101233.16;5034726;28;20061;-77
2022/05/31 00:03:35;;;;;;;29.23;27.73;;;;;;;20.69;41.61;101227.66;5049977;28;20546;-74
2022/05/31 00:06:00;;;;;;;27.77;26.35;;;;;;;20.68;41.80;101223.25;5035032;28;20108;-74
2022/05/31 00:08:26;;;;;;;29.42;27.92;;;;;;;20.66;41.84;101223.59;5049719;28;20198;-75
2022/05/31 00:10:51;;;;;;;29.48;27.98;;;;;;;20.65;42.07;101221.94;5050190;28;20382;-75
2022/05/31 00:13:17;;;;;;;31.02;29.23;;;;;;;20.65;42.19;101223.88;5034334;28;20461;-76
2022/05/31 00:15:42;;;;;;;29.75;28.15;;;;;;;20.64;42.14;101219.50;5034561;28;20033;-75
2022/05/31 00:18:08;;;;;;;28.55;27.13;;;;;;;20.63;42.27;101224.16;5034967;28;20053;-75
2022/05/31 00:20:34;;;;;;;28.27;26.85;;;;;;;20.62;41.89;101217.03;5033439;28;20141;-75
2022/05/31 00:22:59;;;;;;;28.80;27.30;;;;;;;20.62;42.21;101218.97;5034368;28;20470;-74
2022/05/31 00:25:25;;;;;;;30.60;29.05;;;;;;;20.61;42.03;101218.16;5050278;28;20041;-74
2022/05/31 00:27:50;;;;;;;28.42;26.88;;;;;;;20.60;42.30;101224.75;5049741;28;20053;-74
2022/05/31 00:30:16;;;;;;;30.67;29.08;;;;;;;20.60;41.79;101221.22;5034113;28;20037;-74
2022/05/31 00:32:46;;;;;;;28.88;27.23;;;;;;;20.58;42.10;101216.00;5033205;28;20351;-75
2022/05/31 00:35:16;;;;;;;29.33;27.67;;;;;;;20.59;42.24;101222.31;5033686;28;20029;-75
2022/05/31 00:37:43;;;;;;;28.73;27.13;;;;;;;20.59;42.29;101216.81;5034040;28;20081;-75
2022/05/31 00:40:10;;;;;;;27.83;26.35;;;;;;;20.58;42.00;101215.19;5033956;28;20041;-80
2022/05/31 00:42:53;;;;;;;27.77;26.38;;;;;;;20.57;42.27;101214.38;5033685;28;20040;-77
2022/05/31 00:45:20;;;;;;;28.80;27.23;;;;;;;20.56;42.19;101210.00;5033979;28;20029;-76
2022/05/31 00:47:46;;;;;;;30.05;28.55;;;;;;;20.55;42.22;101213.88;5032780;28;20033;-74
2022/05/31 00:50:27;;;;;;;28.85;27.38;;;;;;;20.56;42.31;101214.66;5033844;28;20037;-74
2022/05/31 00:52:57;;;;;;;29.05;27.63;;;;;;;20.55;41.98;101210.31;5033947;28;20025;-75
2022/05/31 00:55:35;;;;;;;27.52;26.02;;;;;;;20.53;42.20;101208.63;5033571;28;20091;-74
2022/05/31 00:58:08;;;;;;;28.48;27.08;;;;;;;20.54;41.93;101203.97;5033584;28;20032;-75
2022/05/31 01:00:36;;;;;;;28.60;27.00;;;;;;;20.53;42.13;101208.63;5034034;28;20127;-74
2022/05/31 01:03:04;;;;;;;28.27;26.77;;;;;;;20.52;42.10;101208.94;5016100;28;20029;-74
2022/05/31 01:05:29;;;;;;;28.95;27.35;;;;;;;20.52;42.04;101209.75;5033964;28;20113;-76
2022/05/31 01:07:54;;;;;;;27.75;26.17;;;;;;;20.53;41.93;101202.34;5033690;28;20059;-75
2022/05/31 01:10:21;;;;;;;29.20;27.70;;;;;;;20.51;42.36;101205.38;5048931;28;20037;-75
2022/05/31 01:12:48;;;;;;;27.83;26.33;;;;;;;20.51;42.18;101204.56;5033572;28;20469;-75
2022/05/31 01:15:16;;;;;;;28.88;27.27;;;;;;;20.50;42.24;101205.69;5033723;28;20351;-74
2022/05/31 01:17:42;;;;;;;27.50;26.00;;;;;;;20.50;42.02;101198.25;5033569;28;20040;-74
2022/05/31 01:20:13;;;;;;;28.60;27.10;;;;;;;20.49;42.29;101202.13;5032321;28;20322;-76
2022/05/31 01:22:53;;;;;;;28.60;27.20;;;;;;;20.50;41.98;101194.69;5034131;28;20029;-74
2022/05/31 01:25:24;;;;;;;29.42;27.92;;;;;;;20.49;42.02;101198.56;5032771;28;20072;-74
2022/05/31 01:28:17;;;;;;;28.58;27.10;;;;;;;20.49;42.15;101198.56;5032216;28;20029;-75
2022/05/31 01:30:52;;;;;;;27.55;26.00;;;;;;;20.48;42.06;101191.44;5033575;28;20029;-74
2022/05/31 01:33:27;;;;;;;28.70;27.17;;;;;;;20.46;42.07;101196.41;5040033;28;20029;-74
2022/05/31 01:35:54;;;;;;;29.35;27.65;;;;;;;20.48;42.23;101196.91;5040030;28;20030;-74
2022/05/31 01:38:29;;;;;;;28.80;27.30;;;;;;;20.47;41.96;101193.38;5040209;28;20063;-75
2022/05/31 01:41:06;;;;;;;28.27;26.80;;;;;;;20.46;42.34;101193.66;5040248;28;20076;-75
2022/05/31 01:43:32;;;;;;;28.98;27.30;;;;;;;20.46;42.36;101189.00;5040090;28;20056;-76
2022/05/31 01:46:12;;;;;;;27.52;26.13;;;;;;;20.46;42.10;101193.66;5039959;28;20041;-75
2022/05/31 01:48:40;;;;;;;27.88;26.48;;;;;;;20.45;42.42;101194.78;5040088;28;20029;-74
2022/05/31 01:51:06;;;;;;;27.80;26.40;;;;;;;20.45;42.18;101194.78;5039851;28;20117;-75
2022/05/31 01:53:33;;;;;;;28.42;26.92;;;;;;;20.45;42.34;101194.78;5039874;28;20502;-75
2022/05/31 01:55:59;;;;;;;28.50;27.00;;;;;;;20.46;42.59;101193.66;5039734;28;20461;-74
2022/05/31 01:58:29;;;;;;;30.08;28.48;;;;;;;20.43;42.63;101186.84;5039905;28;20029;-76
2022/05/31 02:00:55;;;;;;;29.33;27.80;;;;;;;20.44;42.45;101182.19;5039702;28;20123;-75
2022/05/31 02:03:22;;;;;;;30.30;28.27;;;;;;;20.43;42.45;101186.03;5039459;28;20430;-75
2022/05/31 02:05:50;;;;;;;27.70;26.20;;;;;;;20.43;42.18;101186.03;5039683;28;20385;-75
2022/05/31 02:08:17;;;;;;;;;;;;;;;20.43;42.20;101186.03;5040374;28;20105;-81
2022/05/31 02:10:43;;;;;;;27.90;26.50;;;;;;;20.43;42.54;101186.03;5039622;28;19967;-75
2022/05/31 02:13:08;;;;;;;28.02;26.63;;;;;;;20.42;42.54;101184.41;5039575;28;20073;-75
2022/05/31 02:15:34;;;;;;;29.05;27.55;;;;;;;20.41;42.54;101175.38;5039862;28;20037;-75
2022/05/31 02:18:00;;;;;;;28.67;27.15;;;;;;;20.42;42.42;101187.16;5039609;28;20112;-75
2022/05/31 02:20:25;;;;;;;28.48;26.98;;;;;;;20.40;42.38;101181.94;5054930;28;20064;-74
2022/05/31 02:22:51;;;;;;;28.67;27.17;;;;;;;20.40;42.60;101184.69;5039526;28;20033;-75
2022/05/31 02:25:17;;;;;;;28.15;26.75;;;;;;;20.40;42.54;101173.72;5039501;28;20087;-80
2022/05/31 02:27:43;;;;;;;27.77;26.27;;;;;;;20.39;42.27;101166.63;5054636;28;20366;-74
2022/05/31 02:30:08;;;;;;;30.40;28.77;;;;;;;20.40;42.40;101176.47;5055416;28;20044;-74
2022/05/31 02:32:34;;;;;;;30.55;28.95;;;;;;;20.39;42.49;101180.34;5039368;28;20030;-76
2022/05/31 02:35:01;;;;;;;28.65;27.15;;;;;;;20.40;42.46;101175.66;5039176;28;20030;-75
2022/05/31 02:37:26;;;;;;;30.63;28.88;;;;;;;20.41;42.61;101174.53;5039458;28;20049;-76
2022/05/31 02:39:52;;;;;;;29.90;28.30;;;;;;;20.38;42.27;101172.38;5038388;28;20064;-76
2022/05/31 02:42:18;;;;;;;28.40;26.70;;;;;;;20.39;42.54;101171.28;5038621;28;20512;-76
2022/05/31 02:44:44;;;;;;;28.65;27.17;;;;;;;20.37;42.42;101171.56;5035664;28;20411;-74
2022/05/31 02:47:10;;;;;;;28.58;27.13;;;;;;;20.38;42.15;101172.38;5018453;28;20111;-74
2022/05/31 02:49:37;;;;;;;29.70;28.10;;;;;;;20.38;42.41;101172.38;5036091;28;20021;-75
2022/05/31 02:52:02;;;;;;;28.77;27.27;;;;;;;20.37;42.51;101177.06;5035833;28;20034;-75
2022/05/31 02:54:28;;;;;;;29.80;28.10;;;;;;;20.37;42.28;101168.03;5035779;28;20041;-75
2022/05/31 02:56:54;;;;;;;27.88;26.50;;;;;;;20.36;42.35;101172.69;5035810;28;20029;-75
2022/05/31 02:59:19;;;;;;;28.77;27.13;;;;;;;20.36;42.38;101175.44;5052255;28;20061;-81
2022/05/31 03:01:45;;;;;;;29.27;27.77;;;;;;;20.37;42.58;101168.03;5036215;28;20450;-74
2022/05/31 03:04:12;;;;;;;29.45;27.85;;;;;;;20.36;42.43;101169.13;5035966;28;20031;-75
2022/05/31 03:06:37;;;;;;;29.38;27.77;;;;;;;20.36;42.08;101169.13;5035559;28;20035;-74
2022/05/31 03:09:03;;;;;;;28.92;27.42;;;;;;;20.36;42.32;101169.13;5035536;28;20393;-75
2022/05/31 03:11:32;;;;;;;30.40;28.80;;;;;;;20.34;42.67;101163.94;5035703;28;20065;-75
2022/05/31 03:14:23;;;;;;;28.98;27.48;;;;;;;20.33;42.26;101165.03;5036331;28;20527;-75
2022/05/31 03:16:59;;;;;;;28.58;27.08;;;;;;;20.34;42.25;101168.63;5031834;28;20045;-75
2022/05/31 03:19:29;;;;;;;29.60;28.02;;;;;;;20.35;42.44;101162.81;5035681;28;20026;-77
2022/05/31 03:22:00;;;;;;;28.02;26.63;;;;;;;20.34;42.31;101160.41;5036297;28;20025;-75
2022/05/31 03:24:31;;;;;;;28.98;27.40;;;;;;;20.32;42.63;101158.75;5034188;28;20029;-76
2022/05/31 03:27:01;;;;;;;27.90;26.45;;;;;;;20.31;42.17;101159.06;5036128;28;20036;-74
2022/05/31 03:29:26;;;;;;;28.67;27.20;;;;;;;20.31;42.20;101157.13;5035365;28;20116;-75
2022/05/31 03:31:51;;;;;;;28.42;26.92;;;;;;;20.31;42.14;101159.06;5035373;28;20072;-74
2022/05/31 03:34:17;;;;;;;28.50;27.00;;;;;;;20.30;42.48;101158.22;5035423;28;20033;-75
2022/05/31 03:36:43;;;;;;;29.45;27.77;;;;;;;20.30;42.40;101160.97;5050480;28;20456;-75
2022/05/31 03:39:08;;;;;;;28.02;26.45;;;;;;;20.31;42.31;101161.81;5035841;28;20045;-75
2022/05/31 03:41:35;;;;;;;29.83;28.23;;;;;;;20.32;42.41;101157.94;5033990;28;20428;-74
2022/05/31 03:44:01;;;;;;;28.50;27.00;;;;;;;20.30;42.40;101151.94;5050585;28;20172;-75
2022/05/31 03:46:26;;;;;;;28.35;26.90;;;;;;;20.28;42.32;101152.22;5033872;28;20076;-80
2022/05/31 03:48:51;;;;;;;28.35;26.85;;;;;;;20.29;42.36;101153.06;5035152;28;20171;-74
2022/05/31 03:51:17;;;;;;;28.45;26.95;;;;;;;20.29;42.25;101150.31;5050418;28;20060;-74
2022/05/31 03:53:42;;;;;;;28.80;27.30;;;;;;;20.29;42.49;101155.81;5034895;28;20021;-75
2022/05/31 03:56:10;;;;;;;27.88;26.48;;;;;;;20.28;42.27;101159.63;5033874;28;20033;-77
2022/05/31 03:58:37;;;;;;;29.20;27.55;;;;;;;20.28;42.22;101156.91;5035367;28;20034;-75
2022/05/31 04:01:03;;;;;;;28.23;26.73;;;;;;;20.28;42.44;101157.72;5034736;28;20037;-74
2022/05/31 04:03:29;;;;;;;29.02;27.52;;;;;;;20.29;42.48;101158.53;5034537;28;20120;-81
2022/05/31 04:05:54;;;;;;;27.52;26.02;;;;;;;20.28;42.23;101151.41;5034675;28;20072;-76
2022/05/31 04:08:20;;;;;;;27.60;26.20;;;;;;;20.26;42.33;101159.97;5033595;28;20087;-75
2022/05/31 04:10:46;;;;;;;29.35;27.58;;;;;;;20.27;42.27;101158.84;5034393;28;20450;-75
2022/05/31 04:13:13;;;;;;;29.90;28.20;;;;;;;20.26;42.34;101150.88;5034594;28;20057;-74
2022/05/31 04:15:39;;;;;;;28.42;26.83;;;;;;;20.26;42.31;101148.97;5034560;28;20037;-75
2022/05/31 04:18:05;;;;;;;28.85;27.35;;;;;;;20.27;42.49;101147.84;5034799;28;20037;-75
2022/05/31 04:20:31;;;;;;;28.38;26.88;;;;;;;20.26;42.11;101148.97;5034935;28;20433;-79
2022/05/31 04:23:58;;;;;;;29.33;27.83;;;;;;;20.26;42.31;101146.25;5034133;28;20041;-74
2022/05/31 04:25:43;;;;;;;29.08;27.27;;;;;;;20.27;42.54;101149.78;5033865;28;20033;-75
2022/05/31 04:28:09;;;;;;;29.00;27.50;;;;;;;20.25;42.33;101152.81;5034357;28;20068;-74
2022/05/31 04:30:35;;;;;;;29.15;27.65;;;;;;;20.25;42.57;101147.34;5034132;28;20458;-74
2022/05/31 04:33:01;;;;;;;28.80;27.35;;;;;;;20.24;42.27;101156.69;5034268;28;20474;-75
2022/05/31 04:35:26;;;;;;;27.95;26.38;;;;;;;20.24;42.25;101153.13;5049645;28;20156;-75
2022/05/31 04:37:51;;;;;;;27.08;25.73;;;;;;;20.24;42.38;101144.91;5033799;28;20478;-74
2022/05/31 04:40:17;;;;;;;29.23;27.73;;;;;;;20.25;42.25;101146.53;5033358;28;20041;-75
2022/05/31 04:42:42;;;;;;;29.98;28.38;;;;;;;20.26;42.54;101148.16;5033506;28;20044;-75
2022/05/31 04:45:09;;;;;;;28.35;26.85;;;;;;;20.25;42.46;101146.53;5050058;28;20029;-74
2022/05/31 04:47:34;;;;;;;29.17;27.70;;;;;;;20.24;42.42;101142.97;5033949;28;20025;-74
2022/05/31 04:50:01;;;;;;;28.90;27.40;;;;;;;20.24;42.49;101139.44;5033883;28;20529;-75
2022/05/31 04:52:26;;;;;;;29.17;27.63;;;;;;;20.24;42.10;101142.16;5034203;28;20036;-74
2022/05/31 04:54:51;;;;;;;29.02;27.52;;;;;;;20.25;42.76;101141.84;5033828;28;20403;-75
2022/05/31 04:57:17;;;;;;;28.70;27.25;;;;;;;20.26;42.57;101142.66;5034169;28;20048;-74
2022/05/31 04:59:42;;;;;;;28.40;26.80;;;;;;;20.26;42.55;101146.25;5033756;28;20120;-74
2022/05/31 05:02:09;;;;;;;29.15;27.65;;;;;;;20.27;42.50;101145.13;5049200;28;20026;-74
2022/05/31 05:04:35;;;;;;;28.38;26.88;;;;;;;20.28;42.63;101143.19;5033759;28;20037;-80
2022/05/31 05:07:00;;;;;;;29.15;27.67;;;;;;;20.33;42.43;101143.09;5048747;28;20111;-74
2022/05/31 05:09:25;;;;;;;29.42;27.88;;;;;;;20.38;42.75;101143.00;5048720;28;20121;-74
2022/05/31 05:11:51;;;;;;;31.13;29.40;;;;;;;20.35;42.35;101140.06;5032520;28;20476;-75
2022/05/31 05:14:16;;;;;;;29.40;27.70;;;;;;;20.33;42.45;101132.13;5048822;28;20448;-74
2022/05/31 05:16:41;;;;;;;29.98;28.38;;;;;;;20.32;42.51;101136.81;5033529;28;20030;-75
2022/05/31 05:19:07;;;;;;;31.45;29.17;;;;;;;20.33;43.68;101132.13;5033625;28;20063;-74
2022/05/31 05:21:32;;;;;;;48.08;33.67;;;;;;;20.38;45.83;101133.97;5048972;28;20060;-74
2022/05/31 05:23:58;;;;;;;45.42;34.80;;;;;;;20.41;45.29;101141.59;5033206;28;20060;-75
2022/05/31 05:26:23;;;;;;;45.22;34.53;;;;;;;20.46;46.22;101130.53;5032693;28;20438;-74
2022/05/31 05:31:35;;;;;;;35.28;31.42;;;;;;;20.43;44.89;101140.19;5033179;28;20037;-74
2022/05/31 05:34:02;;;;;;;34.70;30.95;;;;;;;20.42;44.62;101130.34;5033145;28;20025;-75
2022/05/31 05:36:29;;;;;;;34.85;31.48;;;;;;;20.43;44.53;101139.38;5033657;28;20060;-74
2022/05/31 05:38:55;;;;;;;36.60;32.10;;;;;;;20.44;43.64;101141.03;5048114;28;20045;-75
2022/05/31 05:41:22;;;;;;;34.38;30.80;;;;;;;20.45;44.22;101137.16;5032998;28;20044;-74
2022/05/31 05:43:48;;;;;;;33.42;30.70;;;;;;;20.45;44.18;101124.25;5031703;28;20037;-77
2022/05/31 05:46:24;;;;;;;32.30;29.55;;;;;;;20.41;44.15;101127.88;5032760;28;20183;-74
2022/05/31 05:48:50;;;;;;;32.58;30.25;;;;;;;20.43;43.84;101133.91;5033517;28;20095;-75
2022/05/31 05:51:21;;;;;;;33.08;30.40;;;;;;;20.44;43.59;101132.78;5033081;28;20112;-76
2022/05/31 05:53:47;;;;;;;31.23;29.23;;;;;;;20.55;44.09;101133.47;5032795;28;20033;-77
2022/05/31 05:56:13;;;;;;;30.63;28.33;;;;;;;20.50;44.76;101134.31;5031308;28;20040;-74
2022/05/31 05:58:40;;;;;;;33.17;30.40;;;;;;;20.55;44.55;101136.22;5033256;28;20048;-83
2022/05/31 06:01:09;;;;;;;31.83;29.63;;;;;;;20.56;44.54;101127.66;5032888;28;20033;-74
2022/05/31 06:03:56;;;;;;;32.00;29.70;;;;;;;20.59;44.37;101135.31;5032849;28;20025;-74
2022/05/31 06:06:23;;;;;;;31.77;29.10;;;;;;;20.60;44.12;101133.38;5033225;28;20036;-74
2022/05/31 06:09:01;;;;;;;32.13;29.58;;;;;;;20.63;44.13;101135.50;5032912;28;20125;-74
2022/05/31 06:11:32;;;;;;;30.92;28.83;;;;;;;20.65;44.10;101128.59;5033444;28;20041;-73
2022/05/31 06:14:01;;;;;;;31.50;29.13;;;;;;;20.66;44.40;101124.75;5032570;28;20045;-75
2022/05/31 06:16:33;;;;;;;32.67;29.83;;;;;;;20.70;44.78;101127.72;5032854;28;20091;-74
2022/05/31 06:19:05;;;;;;;32.05;29.63;;;;;;;20.71;45.28;101124.69;5035204;28;20056;-76
2022/05/31 06:21:31;;;;;;;31.00;28.85;;;;;;;20.74;45.20;101120.50;5037087;28;20099;-81
2022/05/31 06:23:56;;;;;;;34.15;31.85;;;;;;;20.75;45.37;101127.63;5035997;28;20373;-75
2022/05/31 06:26:22;;;;;;;32.35;29.75;;;;;;;20.79;45.77;101131.41;5036092;28;20444;-75
2022/05/31 06:28:47;;;;;;;31.85;29.73;;;;;;;20.79;45.76;101123.16;5036415;28;20034;-74
2022/05/31 06:31:13;;;;;;;31.05;28.70;;;;;;;20.80;45.60;101135.75;5051979;28;20029;-76
2022/05/31 06:33:39;;;;;;;30.23;28.35;;;;;;;20.78;45.13;101134.44;5036254;28;20041;-76
2022/05/31 06:36:07;;;;;;;31.13;28.58;;;;;;;20.74;45.21;101136.97;5052105;28;20037;-76
2022/05/31 06:38:33;;;;;;;31.98;29.23;;;;;;;20.75;45.30;101136.66;5036825;28;20049;-76
2022/05/31 06:40:58;;;;;;;30.63;28.40;;;;;;;20.73;45.67;101130.66;5035620;28;20049;-75
2022/05/31 06:43:23;;;;;;;30.60;28.58;;;;;;;20.78;45.05;101137.19;5036638;28;20496;-76
2022/05/31 06:45:50;;;;;;;31.08;29.17;;;;;;;20.76;45.46;101129.25;5036260;28;20037;-75
2022/05/31 06:48:15;;;;;;;29.85;27.70;;;;;;;20.66;45.26;101130.25;5036215;28;20091;-78
2022/05/31 06:50:41;;;;;;;30.40;28.55;;;;;;;20.68;45.33;101125.25;5051845;28;20026;-76
2022/05/31 06:58:34;;;;;;;30.00;28.25;;;;;;;20.58;44.74;101130.91;5036184;28;20068;-76
2022/05/31 07:01:04;;;;;;;32.60;30.20;;;;;;;20.59;44.99;101132.56;5051319;28;20518;-77
2022/05/31 07:03:29;;;;;;;31.08;29.00;;;;;;;20.59;44.88;101134.47;5035818;28;20068;-76
2022/05/31 07:05:57;;;;;;;30.48;28.55;;;;;;;20.58;44.74;101139.16;5035793;28;20099;-76
2022/05/31 07:08:22;;;;;;;31.27;29.23;;;;;;;20.57;44.29;101128.50;5034445;28;20112;-77
2022/05/31 07:10:47;;;;;;;31.95;30.08;;;;;;;20.57;44.52;101133.97;5034302;28;20033;-77
2022/05/31 07:13:13;;;;;;;31.10;29.00;;;;;;;20.57;44.33;101132.06;5051485;28;20084;-76
2022/05/31 07:15:38;;;;;;;30.73;28.92;;;;;;;20.58;44.51;101136.41;5051035;28;20620;-77
2022/05/31 07:18:05;;;;;;;32.35;30.27;;;;;;;20.61;44.11;101135.00;5034256;28;20155;-77
2022/05/31 07:20:31;;;;;;;30.50;28.40;;;;;;;20.64;44.51;101131.66;5035739;28;20112;-76
2022/05/31 07:22:56;;;;;;;30.20;28.52;;;;;;;20.66;43.94;101124.75;5034352;28;20521;-76
2022/05/31 07:25:22;;;;;;;30.60;28.60;;;;;;;20.65;44.01;101128.59;5035287;28;20030;-76
2022/05/31 07:27:48;;;;;;;32.17;30.33;;;;;;;20.66;44.11;101126.66;5034825;28;20040;-77
2022/05/31 07:30:14;;;;;;;30.95;28.83;;;;;;;20.64;44.09;101120.69;5049821;28;20038;-78
2022/05/31 07:32:39;;;;;;;29.77;27.73;;;;;;;20.65;43.90;101120.38;5035021;28;20365;-76
2022/05/31 07:35:05;;;;;;;30.35;28.55;;;;;;;20.67;44.16;101120.09;5049977;28;20029;-77
2022/05/31 07:37:31;;;;;;;29.77;27.83;;;;;;;20.65;43.70;101116.81;5035052;28;20096;-77
2022/05/31 07:39:56;;;;;;;30.52;28.65;;;;;;;20.63;43.98;101113.56;5035379;28;20095;-76
2022/05/31 07:42:22;;;;;;;31.17;29.15;;;;;;;20.64;44.00;101117.94;5050370;28;20037;-77
2022/05/31 07:44:51;;;;;;;30.17;28.35;;;;;;;20.64;44.16;101123.44;5050324;28;20033;-77
2022/05/31 07:47:17;;;;;;;31.15;29.30;;;;;;;20.61;44.07;101127.56;5034917;28;20029;-76
2022/05/31 07:49:42;;;;;;;28.88;27.05;;;;;;;20.63;43.97;101121.78;5033347;28;20040;-77
2022/05/31 07:52:09;;;;;;;30.38;28.58;;;;;;;20.64;43.78;101120.69;5033450;28;20067;-76
2022/05/31 07:54:35;;;;;;;30.00;28.27;;;;;;;20.63;44.23;101122.59;5033459;28;20465;-79
2022/05/31 07:57:04;;;;;;;31.45;29.70;;;;;;;20.63;43.74;101116.31;5050037;28;20033;-78
2022/05/31 07:59:31;;;;;;;30.95;29.05;;;;;;;20.63;44.03;101117.09;5033444;28;20037;-75
2022/05/31 08:01:56;;;;;;;32.22;30.42;;;;;;;20.63;44.18;101121.78;5034088;28;20095;-75
2022/05/31 08:04:21;;;;;;;31.65;29.73;;;;;;;20.64;43.76;101118.75;5034620;28;20470;-76
2022/05/31 08:06:47;;;;;;;30.38;28.58;;;;;;;20.63;43.61;101117.09;5033310;28;20037;-76
2022/05/31 08:09:13;;;;;;;31.70;29.85;;;;;;;20.62;44.22;101107.25;5034417;28;20033;-75
2022/05/31 08:11:38;;;;;;;29.77;27.77;;;;;;;20.64;43.84;101112.47;5049981;28;20034;-76
2022/05/31 08:14:04;;;;;;;32.13;30.17;;;;;;;20.65;44.11;101114.06;5049660;28;20038;-76
2022/05/31 08:16:30;;;;;;;30.10;28.50;;;;;;;20.63;43.58;101114.38;5033152;28;20128;-76
2022/05/31 08:18:56;;;;;;;31.85;30.05;;;;;;;20.64;43.66;101113.28;5034823;28;20037;-75
2022/05/31 08:21:28;;;;;;;31.50;29.70;;;;;;;20.64;43.98;101106.97;5032955;28;20044;-75
2022/05/31 08:24:00;;;;;;;31.35;29.55;;;;;;;20.64;43.91;101101.47;5034238;28;20100;-75
2022/05/31 08:26:26;;;;;;;31.15;29.33;;;;;;;20.62;44.11;101110.00;5034235;28;20033;-79
2022/05/31 08:28:52;;;;;;;31.75;29.75;;;;;;;20.65;44.02;101103.91;5034044;28;20030;-76
2022/05/31 08:31:23;;;;;;;30.80;29.00;;;;;;;20.67;43.85;101106.38;5032932;28;20159;-76
2022/05/31 08:33:49;;;;;;;31.20;29.48;;;;;;;20.70;44.00;101113.97;5034172;28;20083;-76
2022/05/31 08:36:14;;;;;;;31.52;29.63;;;;;;;20.69;43.75;101110.44;5032709;28;20037;-76
2022/05/31 08:38:40;;;;;;;29.98;28.30;;;;;;;20.69;43.98;101102.19;5034316;28;20057;-75
2022/05/31 08:41:23;;;;;;;31.40;29.17;;;;;;;20.71;43.78;101104.63;5033442;28;20477;-75
2022/05/31 08:43:48;;;;;;;31.63;29.73;;;;;;;20.71;43.74;101110.94;5033947;28;20033;-75
2022/05/31 08:46:21;;;;;;;31.48;29.38;;;;;;;20.70;43.41;101105.75;5032549;28;20152;-75
2022/05/31 08:48:57;;;;;;;29.42;27.58;;;;;;;20.72;44.01;101106.28;5033929;28;20060;-75
2022/05/31 08:51:55;;;;;;;31.48;29.67;;;;;;;20.78;43.37;101106.97;5032698;28;20030;-76
2022/05/31 08:57:53;;;;;;;30.83;29.13;;;;;;;20.79;43.17;101097.63;5034220;28;20033;-75
2022/05/31 09:00:24;;;;;;;30.55;28.70;;;;;;;20.77;43.56;101089.69;5032732;28;20558;-76
2022/05/31 09:03:14;;;;;;;31.38;29.45;;;;;;;20.79;43.27;101094.88;5033397;28;20033;-75
2022/05/31 09:05:46;;;;;;;29.83;28.00;;;;;;;20.78;43.25;101096.81;5033939;28;20053;-75
2022/05/31 09:08:20;;;;;;;33.35;31.45;;;;;;;20.79;43.58;101098.47;5032184;28;20025;-77
2022/05/31 09:11:03;;;;;;;29.75;27.98;;;;;;;20.80;43.57;101091.84;5033512;28;20029;-75
2022/05/31 09:13:50;;;;;;;29.15;27.38;;;;;;;20.81;43.40;101081.66;5033571;28;20033;-75
2022/05/31 09:16:31;;;;;;;30.58;28.75;;;;;;;20.83;42.81;101088.47;5032970;28;20034;-75
2022/05/31 09:19:04;;;;;;;30.50;28.90;;;;;;;20.84;43.49;101095.63;5032329;28;20125;-76
2022/05/31 09:21:37;;;;;;;29.23;27.63;;;;;;;20.81;43.48;101089.91;5033379;28;20041;-75
2022/05/31 09:24:03;;;;;;;31.02;29.33;;;;;;;20.79;43.67;101090.22;5033824;28;20036;-75
2022/05/31 09:27:20;;;;;;;29.67;27.98;;;;;;;20.78;43.36;101083.09;5033212;28;20109;-76
2022/05/31 09:30:04;;;;;;;29.75;28.13;;;;;;;20.80;43.62;101082.78;5032046;28;20045;-76
2022/05/31 09:32:48;;;;;;;30.40;28.70;;;;;;;20.81;43.19;101081.66;5033347;28;20029;-76
2022/05/31 09:35:36;;;;;;;31.00;29.25;;;;;;;20.82;43.04;101081.38;5033530;28;20441;-75
2022/05/31 09:38:01;;;;;;;30.45;28.73;;;;;;;20.83;43.02;101084.91;5033160;28;20041;-76
2022/05/31 09:40:49;;;;;;;30.95;29.25;;;;;;;20.83;43.04;101090.41;5032178;28;20037;-77
2022/05/31 09:43:35;;;;;;;31.05;29.35;;;;;;;20.82;43.62;101086.06;5033339;28;20034;-75
2022/05/31 09:46:09;;;;;;;29.23;27.60;;;;;;;20.80;43.52;101080.03;5033516;28;20037;-76
2022/05/31 09:48:45;;;;;;;29.67;28.05;;;;;;;20.82;42.72;101080.56;5033293;28;20059;-77
2022/05/31 09:51:24;;;;;;;31.85;29.95;;;;;;;20.85;42.92;101071.72;5032982;28;20037;-76
2022/05/31 09:59:27;;;;;;;31.17;29.48;;;;;;;20.90;42.52;101066.94;5038117;28;20044;-76
2022/05/31 10:01:53;;;;;;;;;;;;;;;20.90;43.17;101063.38;5037634;28;20091;-76
2022/05/31 10:04:24;;;;;;;29.38;27.77;;;;;;;20.89;42.80;101069.97;5036146;28;19916;-76
2022/05/31 10:06:58;;;;;;;29.05;27.55;;;;;;;20.87;42.64;101072.22;5037206;28;20025;-76
2022/05/31 10:09:39;;;;;;;29.75;28.13;;;;;;;20.88;42.53;101065.59;5037393;28;20097;-77
2022/05/31 10:12:26;;;;;;;30.33;28.75;;;;;;;20.91;41.73;101062.25;5036105;28;20067;-76
2022/05/31 10:14:54;;;;;;;29.45;27.85;;;;;;;20.93;43.01;101060.81;5037222;28;20186;-77
2022/05/31 10:17:32;;;;;;;30.53;28.83;;;;;;;20.92;41.89;101059.19;5036908;28;20116;-76
2022/05/31 10:20:12;;;;;;;29.15;27.55;;;;;;;20.94;41.94;101058.88;5035633;28;20030;-76
2022/05/31 10:22:58;;;;;;;29.23;27.73;;;;;;;20.92;42.32;101061.16;5036966;28;20025;-76
2022/05/31 10:25:35;;;;;;;29.58;27.98;;;;;;;20.91;42.26;101062.25;5036195;28;20048;-77
2022/05/31 10:28:04;;;;;;;30.40;28.67;;;;;;;20.90;41.90;101058.69;5036773;28;20044;-77
2022/05/31 10:30:31;;;;;;;30.42;28.83;;;;;;;20.93;41.60;101058.06;5036364;28;20060;-76
2022/05/31 10:33:26;;;;;;;31.10;29.40;;;;;;;20.89;42.07;101064.47;5036620;28;20037;-76
2022/05/31 10:36:17;;;;;;;31.88;29.92;;;;;;;20.93;41.49;101060.81;5036658;28;20458;-76
2022/05/31 10:38:46;;;;;;;29.83;28.02;;;;;;;20.91;41.63;101065.00;5036972;28;20077;-77
2022/05/31 10:41:21;;;;;;;30.02;28.42;;;;;;;20.95;41.80;101063.28;5035028;28;20457;-76
2022/05/31 10:43:51;;;;;;;29.75;28.10;;;;;;;20.92;41.90;101061.94;5035495;28;20416;-76
2022/05/31 10:46:36;;;;;;;32.20;30.23;;;;;;;20.93;41.33;101058.06;5036261;28;20022;-77
2022/05/31 10:49:15;;;;;;;30.60;28.98;;;;;;;20.94;41.66;101053.38;5035870;28;20039;-76
2022/05/31 10:52:39;;;;;;;30.75;28.80;;;;;;;20.95;41.30;101055.84;5036213;28;20374;-74
2022/05/31 10:55:28;;;;;;;29.70;27.80;;;;;;;20.97;41.41;101055.56;5028294;28;20613;-82
2022/05/31 10:57:59;;;;;;;30.27;28.48;;;;;;;20.93;41.26;101047.09;5036052;28;20387;-76
2022/05/31 11:00:44;;;;;;;32.50;30.63;;;;;;;20.95;41.54;101053.09;5035922;28;20075;-76
2022/05/31 11:03:21;;;;;;;32.45;30.48;;;;;;;20.98;41.38;101057.16;5034668;28;20041;-76
2022/05/31 11:06:11;;;;;;;30.77;28.95;;;;;;;20.95;41.83;101053.09;5035459;28;20033;-76
2022/05/31 11:11:39;;;;;;;31.05;29.33;;;;;;;20.93;42.76;101057.25;5035692;28;20118;-75
2022/05/31 11:14:22;;;;;;;30.75;29.15;;;;;;;20.94;42.57;101053.38;5036044;28;20044;-76
2022/05/31 11:17:04;;;;;;;29.73;28.13;;;;;;;20.93;42.67;101058.06;5035717;28;20044;-76
2022/05/31 11:19:48;;;;;;;30.55;28.95;;;;;;;20.92;42.84;101053.72;5035963;28;20030;-76
2022/05/31 11:22:36;;;;;;;32.30;30.35;;;;;;;20.93;42.86;101052.59;5034553;28;20040;-76
2022/05/31 11:25:26;;;;;;;31.10;29.42;;;;;;;20.94;42.90;101051.47;5034302;28;20083;-76
2022/05/31 11:28:00;;;;;;;30.73;29.15;;;;;;;20.96;42.77;101051.16;5034783;28;20460;-76
2022/05/31 11:30:26;;;;;;;32.55;30.67;;;;;;;20.95;43.20;101052.28;5035698;28;20045;-76
2022/05/31 11:33:14;;;;;;;30.38;28.75;;;;;;;20.96;43.17;101054.75;5034030;28;20033;-76
2022/05/31 11:36:06;;;;;;;30.65;29.15;;;;;;;20.97;43.16;101058.28;5034699;28;20056;-76
2022/05/31 11:38:48;;;;;;;29.83;28.25;;;;;;;20.98;43.25;101059.91;5035040;28;20095;-77
2022/05/31 11:41:33;;;;;;;30.73;28.92;;;;;;;20.96;42.95;101057.50;5035461;28;20084;-79
2022/05/31 11:44:20;;;;;;;29.00;27.50;;;;;;;20.98;43.16;101061.84;5035194;28;20026;-76